Time;durP1;ratioP1;P1;durP2;ratioP2;P2;SDS_P1;SDS_P2;PMS_P1;PMS_P2;Temp;Humidity;BMP_temperature;BMP_pressure;BME280_temperature;BME280_humidity;BME280_pressure;Samples;Min_cycle;Max_cycle;Signal;HPM_P1;HPM_P2
2021/03/11 00:00:46;;;;;;;30.93;21.07;;;7.70;99.90;;;;;;5053030;28;20199;-63
2021/03/11 00:03:14;;;;;;;29.27;21.73;;;7.70;99.90;;;;;;5050657;28;21236;-62
2021/03/11 00:05:41;;;;;;;32.40;21.70;;;7.70;99.90;;;;;;5050876;28;20211;-62
2021/03/11 00:08:08;;;;;;;28.87;21.10;;;7.70;99.90;;;;;;5050133;28;20235;-62
2021/03/11 00:10:35;;;;;;;30.73;22.30;;;7.70;99.90;;;;;;5050230;28;20203;-63
2021/03/11 00:13:02;;;;;;;30.70;21.03;;;7.70;99.90;;;;;;5052273;28;20208;-62
2021/03/11 00:15:29;;;;;;;32.10;21.07;;;7.70;99.90;;;;;;5051442;28;20206;-62
2021/03/11 00:17:56;;;;;;;29.03;21.20;;;7.80;99.90;;;;;;5049747;28;20199;-62
2021/03/11 00:20:25;;;;;;;28.93;20.73;;;7.80;99.90;;;;;;5050134;28;20250;-62
2021/03/11 00:22:52;;;;;;;29.73;20.63;;;7.80;99.90;;;;;;5052515;28;20192;-62
2021/03/11 00:25:21;;;;;;;29.63;20.90;;;7.80;99.90;;;;;;5051653;28;20211;-62
2021/03/11 00:27:48;;;;;;;27.10;20.07;;;7.80;99.90;;;;;;5050994;28;20199;-62
2021/03/11 00:30:16;;;;;;;28.20;21.03;;;7.80;99.90;;;;;;5051411;28;20258;-62
2021/03/11 00:32:43;;;;;;;31.53;22.13;;;7.80;99.90;;;;;;5058413;28;20202;-63
2021/03/11 00:35:11;;;;;;;28.50;20.80;;;7.80;99.90;;;;;;5072077;28;20226;-63
2021/03/11 00:37:40;;;;;;;33.20;21.83;;;7.80;99.90;;;;;;5059768;28;20203;-62
2021/03/11 00:40:09;;;;;;;28.60;21.37;;;7.80;99.90;;;;;;5052635;28;20203;-63
2021/03/11 00:42:35;;;;;;;30.03;22.33;;;7.80;99.90;;;;;;5057889;28;20207;-62
2021/03/11 00:45:03;;;;;;;32.20;22.37;;;7.90;99.90;;;;;;5069760;28;20209;-63
2021/03/11 00:47:30;;;;;;;30.10;20.73;;;7.80;99.90;;;;;;5062786;28;20195;-62
2021/03/11 00:49:56;;;;;;;28.27;20.67;;;7.90;99.90;;;;;;5052094;28;20200;-62
2021/03/11 00:52:23;;;;;;;30.57;21.97;;;7.90;99.90;;;;;;5048342;28;20207;-62
2021/03/11 00:54:50;;;;;;;32.47;23.13;;;7.90;99.90;;;;;;5047403;28;20277;-63
2021/03/11 00:57:17;;;;;;;29.93;18.70;;;7.90;99.90;;;;;;5052307;28;20198;-63
2021/03/11 00:59:43;;;;;;;30.97;21.63;;;8.00;99.90;;;;;;5049815;28;20652;-63
2021/03/11 01:02:10;;;;;;;33.43;22.77;;;8.00;99.90;;;;;;5048935;28;20191;-63
2021/03/11 01:04:36;;;;;;;33.60;22.67;;;8.00;99.90;;;;;;5051960;28;20211;-63
2021/03/11 01:07:03;;;;;;;30.40;21.33;;;8.00;99.90;;;;;;5050896;28;20211;-63
2021/03/11 01:09:29;;;;;;;30.63;21.27;;;8.00;99.90;;;;;;5049120;28;20227;-62
2021/03/11 01:11:57;;;;;;;29.80;21.63;;;8.00;99.90;;;;;;5050799;28;20207;-62
2021/03/11 01:14:23;;;;;;;29.57;21.60;;;8.10;99.90;;;;;;5050354;28;20892;-63
2021/03/11 01:16:50;;;;;;;32.27;21.63;;;8.10;99.90;;;;;;5069958;28;20202;-62
2021/03/11 01:19:17;;;;;;;31.20;21.23;;;8.10;99.90;;;;;;5050855;28;20534;-62
2021/03/11 01:21:44;;;;;;;32.37;21.47;;;8.20;99.90;;;;;;5049356;28;20206;-63
2021/03/11 01:24:11;;;;;;;28.43;20.70;;;8.20;99.90;;;;;;5049917;28;20207;-63
2021/03/11 01:26:37;;;;;;;27.00;20.73;;;8.20;99.90;;;;;;5072083;28;20205;-62
2021/03/11 01:29:05;;;;;;;29.33;21.83;;;8.30;99.90;;;;;;5054478;28;20207;-62
2021/03/11 01:31:31;;;;;;;29.17;22.23;;;8.30;99.90;;;;;;5051683;28;20207;-62
2021/03/11 01:33:58;;;;;;;29.70;20.50;;;8.30;99.90;;;;;;5050390;28;20228;-62
2021/03/11 01:36:24;;;;;;;32.33;22.87;;;8.30;99.90;;;;;;5050573;28;20206;-63
2021/03/11 01:38:51;;;;;;;25.40;20.37;;;8.40;99.90;;;;;;5050743;28;20204;-62
2021/03/11 01:41:17;;;;;;;26.53;20.17;;;8.40;99.90;;;;;;5051611;28;20195;-62
2021/03/11 01:43:44;;;;;;;29.40;19.83;;;8.40;99.90;;;;;;5050583;28;20209;-63
2021/03/11 01:46:11;;;;;;;30.30;21.03;;;8.40;99.90;;;;;;5062396;28;20602;-64
2021/03/11 01:48:38;;;;;;;28.57;19.53;;;8.40;99.90;;;;;;5055392;28;20249;-63
2021/03/11 01:51:05;;;;;;;26.97;19.83;;;8.50;99.90;;;;;;5053405;28;20204;-64
2021/03/11 01:53:32;;;;;;;27.63;19.63;;;8.50;99.90;;;;;;5054789;28;20272;-62
2021/03/11 01:55:58;;;;;;;28.43;20.83;;;8.50;99.90;;;;;;5052698;28;20200;-63
2021/03/11 01:58:26;;;;;;;27.47;18.33;;;8.50;99.90;;;;;;5071219;28;20198;-63
2021/03/11 02:00:53;;;;;;;28.73;19.87;;;8.60;99.90;;;;;;5075480;28;20248;-63
2021/03/11 02:03:20;;;;;;;31.60;20.60;;;8.60;99.90;;;;;;5053257;28;20657;-63
2021/03/11 02:05:47;;;;;;;26.17;18.90;;;8.60;99.90;;;;;;5065301;28;20195;-63
2021/03/11 02:08:13;;;;;;;25.37;19.40;;;8.60;99.90;;;;;;5053041;28;20296;-63
2021/03/11 02:10:40;;;;;;;25.90;19.00;;;8.60;99.90;;;;;;5055472;28;20199;-62
2021/03/11 02:13:27;;;;;;;26.33;17.73;;;8.70;99.90;;;;;;5054161;28;20203;-63
2021/03/11 02:16:01;;;;;;;25.10;17.70;;;8.70;99.90;;;;;;5049670;28;20200;-64
2021/03/11 02:18:34;;;;;;;26.73;16.77;;;8.70;99.90;;;;;;5053503;28;20203;-62
2021/03/11 02:21:05;;;;;;;24.93;17.70;;;8.80;99.90;;;;;;5052598;28;20192;-63
2021/03/11 02:24:02;;;;;;;22.03;17.20;;;8.80;99.90;;;;;;5055023;28;20196;-63
2021/03/11 02:26:46;;;;;;;21.27;16.63;;;8.80;99.90;;;;;;5050404;28;20192;-63
2021/03/11 02:29:16;;;;;;;24.13;17.63;;;8.80;99.90;;;;;;5054887;28;20188;-62
2021/03/11 02:31:44;;;;;;;22.17;15.67;;;8.90;99.90;;;;;;5053328;28;20652;-63
2021/03/11 02:34:15;;;;;;;21.47;15.47;;;9.00;99.90;;;;;;5054549;28;20281;-62
2021/03/11 02:36:43;;;;;;;19.20;15.50;;;9.00;99.90;;;;;;5052283;28;20199;-63
2021/03/11 02:39:10;;;;;;;19.33;13.37;;;9.00;99.90;;;;;;5053555;28;20245;-62
2021/03/11 02:41:39;;;;;;;19.40;14.73;;;9.00;99.90;;;;;;5051904;28;20207;-62
2021/03/11 02:44:07;;;;;;;19.73;13.50;;;9.00;99.90;;;;;;5054505;28;20290;-62
2021/03/11 02:46:35;;;;;;;17.07;12.57;;;9.00;99.90;;;;;;5065944;28;20210;-63
2021/03/11 02:49:02;;;;;;;21.20;14.50;;;9.10;99.90;;;;;;5053015;28;20223;-63
2021/03/11 02:51:29;;;;;;;18.67;13.27;;;9.10;99.90;;;;;;5053103;28;20207;-62
2021/03/11 02:53:57;;;;;;;16.23;12.77;;;9.20;99.90;;;;;;5052160;28;20227;-63
2021/03/11 02:56:24;;;;;;;17.43;13.00;;;9.30;99.90;;;;;;5052727;28;20204;-63
2021/03/11 02:58:52;;;;;;;17.53;13.10;;;9.30;99.90;;;;;;5053988;28;20196;-62
2021/03/11 03:01:19;;;;;;;16.33;12.30;;;9.30;99.90;;;;;;5051485;28;20649;-61
2021/03/11 03:03:48;;;;;;;18.40;13.00;;;9.40;99.90;;;;;;5052002;28;20235;-61
2021/03/11 03:06:16;;;;;;;18.50;13.10;;;9.40;99.90;;;;;;5048037;28;20223;-62
2021/03/11 03:08:43;;;;;;;16.97;12.23;;;9.40;99.90;;;;;;5052324;28;20231;-63
2021/03/11 03:11:11;;;;;;;16.93;12.50;;;9.40;99.90;;;;;;5052415;28;20199;-63
2021/03/11 03:13:40;;;;;;;19.50;12.33;;;9.40;99.90;;;;;;5053841;28;20224;-62
2021/03/11 03:16:08;;;;;;;14.60;11.80;;;9.40;99.90;;;;;;5051195;28;20199;-63
2021/03/11 03:18:35;;;;;;;15.83;12.03;;;9.40;99.90;;;;;;5050181;28;20208;-64
2021/03/11 03:21:06;;;;;;;17.47;12.57;;;9.40;99.90;;;;;;5052313;28;20657;-63
2021/03/11 03:23:34;;;;;;;17.03;12.03;;;9.40;99.90;;;;;;5053369;28;20192;-63
2021/03/11 03:26:00;;;;;;;13.57;10.93;;;9.40;99.90;;;;;;5062669;28;20195;-64
2021/03/11 03:28:27;;;;;;;15.90;11.57;;;9.40;99.90;;;;;;5053393;28;20672;-63
2021/03/11 03:30:53;;;;;;;15.50;10.90;;;9.40;99.90;;;;;;5053263;28;20225;-64
2021/03/11 03:33:20;;;;;;;14.57;12.17;;;9.40;99.90;;;;;;5052355;28;20199;-62
2021/03/11 03:35:47;;;;;;;14.97;11.13;;;9.40;99.90;;;;;;5050840;28;20195;-62
2021/03/11 03:38:15;;;;;;;14.57;11.13;;;9.50;99.90;;;;;;5053515;28;20203;-63
2021/03/11 03:40:42;;;;;;;13.77;9.50;;;9.40;99.90;;;;;;5050460;28;20210;-63
2021/03/11 03:43:12;;;;;;;16.50;11.47;;;9.50;99.90;;;;;;5053575;28;20195;-62
2021/03/11 03:45:42;;;;;;;13.90;11.00;;;9.50;99.90;;;;;;5051758;28;20196;-62
2021/03/11 03:48:15;;;;;;;14.57;10.27;;;9.50;99.90;;;;;;5051970;28;20199;-62
2021/03/11 03:50:45;;;;;;;12.77;9.93;;;9.50;99.90;;;;;;5050428;28;20966;-62
2021/03/11 03:53:18;;;;;;;15.77;10.90;;;9.60;99.90;;;;;;5052535;28;20195;-63
2021/03/11 03:55:47;;;;;;;11.80;9.73;;;9.60;99.90;;;;;;5051189;28;20203;-63
2021/03/11 03:58:14;;;;;;;11.33;8.37;;;9.60;99.90;;;;;;5051963;28;20199;-63
2021/03/11 04:00:42;;;;;;;11.87;8.70;;;9.60;99.90;;;;;;5051557;28;20242;-62
2021/03/11 04:03:10;;;;;;;12.77;9.57;;;9.70;99.90;;;;;;5053353;28;20346;-63
2021/03/11 04:05:37;;;;;;;11.40;9.20;;;9.70;99.90;;;;;;5049060;28;20226;-62
2021/03/11 04:08:05;;;;;;;12.90;9.17;;;9.70;99.90;;;;;;5050088;28;20235;-63
2021/03/11 04:10:33;;;;;;;11.97;8.97;;;9.80;99.90;;;;;;5048619;28;20210;-63
2021/03/11 04:13:00;;;;;;;12.03;9.50;;;9.80;99.90;;;;;;5053040;28;20192;-63
2021/03/11 04:15:27;;;;;;;11.90;8.60;;;9.80;99.90;;;;;;5044265;28;20220;-63
2021/03/11 04:17:56;;;;;;;11.10;8.33;;;9.90;99.90;;;;;;5041887;28;20556;-63
2021/03/11 04:20:24;;;;;;;11.17;8.90;;;9.90;99.90;;;;;;5051466;28;20203;-63
2021/03/11 04:22:51;;;;;;;9.67;7.50;;;9.90;99.90;;;;;;5050391;28;20195;-63
2021/03/11 04:25:18;;;;;;;10.70;8.03;;;9.90;99.90;;;;;;5044778;28;20652;-63
2021/03/11 04:27:46;;;;;;;12.20;9.03;;;9.90;99.90;;;;;;5051252;28;20203;-63
2021/03/11 04:30:13;;;;;;;13.07;7.60;;;10.00;99.90;;;;;;5058480;28;20203;-63
2021/03/11 04:32:41;;;;;;;11.50;7.60;;;9.90;99.90;;;;;;5061520;28;20195;-62
2021/03/11 04:35:09;;;;;;;10.70;7.03;;;10.00;99.90;;;;;;5072708;28;20233;-63
2021/03/11 04:37:37;;;;;;;9.30;6.97;;;10.10;99.90;;;;;;5055517;28;20688;-63
2021/03/11 04:40:05;;;;;;;11.10;6.30;;;10.10;99.90;;;;;;5049520;28;20204;-63
2021/03/11 04:42:32;;;;;;;9.00;6.90;;;10.10;99.90;;;;;;5052487;28;20199;-63
2021/03/11 04:45:01;;;;;;;10.10;6.50;;;10.10;99.90;;;;;;5049372;28;20206;-63
2021/03/11 04:47:29;;;;;;;9.63;7.17;;;10.00;99.90;;;;;;5050429;28;20203;-63
2021/03/11 04:49:56;;;;;;;9.57;7.73;;;10.00;99.90;;;;;;5051453;28;20196;-64
2021/03/11 04:52:23;;;;;;;10.00;7.70;;;10.00;99.90;;;;;;5052157;28;20198;-63
2021/03/11 04:54:49;;;;;;;10.27;8.20;;;10.00;99.90;;;;;;5050678;28;20591;-63
2021/03/11 04:57:16;;;;;;;10.07;7.40;;;10.00;99.90;;;;;;5051970;28;20191;-63
2021/03/11 04:59:43;;;;;;;10.33;8.07;;;10.00;99.90;;;;;;5055710;28;20202;-63
2021/03/11 05:02:10;;;;;;;9.23;7.47;;;9.90;99.90;;;;;;5048371;28;20199;-63
2021/03/11 05:04:39;;;;;;;11.87;8.03;;;9.90;99.90;;;;;;5051895;28;20256;-63
2021/03/11 05:07:05;;;;;;;11.50;7.87;;;9.90;99.90;;;;;;5071918;28;20673;-63
2021/03/11 05:09:32;;;;;;;10.37;7.03;;;9.90;99.90;;;;;;5056644;28;20246;-63
2021/03/11 05:11:58;;;;;;;10.97;7.00;;;9.90;99.90;;;;;;5050635;28;20204;-64
2021/03/11 05:14:25;;;;;;;8.73;6.20;;;9.90;99.90;;;;;;5049835;28;20707;-63
2021/03/11 05:16:51;;;;;;;11.87;6.90;;;10.00;99.90;;;;;;5050946;28;20204;-62
2021/03/11 05:19:18;;;;;;;8.43;5.50;;;10.10;99.90;;;;;;5056209;28;20648;-63
2021/03/11 05:21:45;;;;;;;7.17;5.20;;;10.10;99.90;;;;;;5054781;28;20195;-62
2021/03/11 05:24:12;;;;;;;9.53;5.27;;;10.20;99.90;;;;;;5055832;28;20700;-63
2021/03/11 05:26:38;;;;;;;8.53;4.70;;;10.20;99.90;;;;;;5054804;28;20202;-63
2021/03/11 05:29:05;;;;;;;7.43;5.13;;;10.30;99.90;;;;;;5055974;28;20257;-63
2021/03/11 05:31:31;;;;;;;7.23;4.33;;;10.40;99.90;;;;;;5054097;28;20207;-62
2021/03/11 05:33:58;;;;;;;8.60;4.40;;;10.40;99.90;;;;;;5054085;28;20230;-63
2021/03/11 05:36:28;;;;;;;5.10;3.80;;;10.40;99.90;;;;;;5056468;28;20199;-64
2021/03/11 05:38:54;;;;;;;8.20;3.47;;;10.40;99.90;;;;;;5055907;28;20184;-63
2021/03/11 05:41:22;;;;;;;6.63;3.30;;;10.40;99.90;;;;;;5053163;28;20204;-63
2021/03/11 05:43:51;;;;;;;5.87;3.53;;;10.50;99.90;;;;;;5055766;28;20203;-63
2021/03/11 05:46:18;;;;;;;7.03;3.20;;;10.60;99.90;;;;;;5054313;28;20286;-63
2021/03/11 05:48:46;;;;;;;5.83;3.20;;;10.50;99.90;;;;;;5065342;28;20199;-63
2021/03/11 05:51:13;;;;;;;7.23;3.20;;;10.60;99.90;;;;;;5059692;28;20207;-63
2021/03/11 05:53:41;;;;;;;5.00;3.00;;;10.60;99.90;;;;;;5055624;28;20222;-63
2021/03/11 05:56:08;;;;;;;7.07;2.57;;;10.70;99.90;;;;;;5053098;28;20564;-63
2021/03/11 05:58:34;;;;;;;6.33;2.73;;;10.80;99.90;;;;;;5055216;28;20198;-63
2021/03/11 06:01:01;;;;;;;6.13;2.60;;;10.80;99.90;;;;;;5051247;28;20200;-63
2021/03/11 06:03:32;;;;;;;4.90;2.47;;;10.90;99.90;;;;;;5051665;28;20245;-63
2021/03/11 06:06:00;;;;;;;9.17;3.17;;;10.90;99.90;;;;;;5051809;28;20192;-63
2021/03/11 06:08:27;;;;;;;13.27;3.00;;;10.90;99.90;;;;;;5048084;28;20704;-65
2021/03/11 06:10:55;;;;;;;10.70;2.77;;;10.90;99.90;;;;;;5053895;28;20214;-65
2021/03/11 06:13:23;;;;;;;15.90;3.87;;;10.90;99.90;;;;;;5034840;28;20744;-64
2021/03/11 06:15:58;;;;;;;16.20;4.30;;;10.80;99.90;;;;;;5036848;28;20230;-64
2021/03/11 06:18:26;;;;;;;16.80;4.47;;;10.60;99.90;;;;;;5054510;28;20536;-65
2021/03/11 06:20:52;;;;;;;20.00;4.67;;;10.60;99.90;;;;;;5053485;28;20246;-64
2021/03/11 06:23:19;;;;;;;25.73;5.30;;;10.50;99.90;;;;;;5074724;28;20230;-63
2021/03/11 06:25:49;;;;;;;18.37;5.27;;;10.50;99.90;;;;;;5075098;28;20199;-63
2021/03/11 06:28:16;;;;;;;16.40;4.77;;;10.50;99.90;;;;;;5074555;28;20187;-63
2021/03/11 06:30:43;;;;;;;22.07;5.27;;;10.40;99.90;;;;;;5069191;28;20212;-63
2021/03/11 06:33:09;;;;;;;15.30;4.10;;;10.40;99.90;;;;;;5053319;28;20211;-64
2021/03/11 06:35:38;;;;;;;18.97;5.03;;;10.50;99.90;;;;;;5048508;28;20231;-63
2021/03/11 06:38:04;;;;;;;18.40;4.73;;;10.50;99.90;;;;;;5047480;28;20291;-63
2021/03/11 06:40:32;;;;;;;23.23;5.00;;;10.60;99.90;;;;;;5057505;28;20209;-63
2021/03/11 06:43:09;;;;;;;19.30;4.40;;;10.60;99.90;;;;;;5037258;28;20200;-62
2021/03/11 06:45:36;;;;;;;20.33;4.47;;;10.60;99.90;;;;;;5052052;28;20575;-64
2021/03/11 06:48:18;;;;;;;19.47;4.93;;;10.70;99.90;;;;;;5051582;28;20195;-63
2021/03/11 06:50:45;;;;;;;20.87;5.47;;;10.80;99.90;;;;;;5050652;28;20204;-63
2021/03/11 06:53:11;;;;;;;20.17;4.80;;;10.90;99.90;;;;;;5044628;28;20203;-64
2021/03/11 06:55:38;;;;;;;16.70;3.87;;;10.90;99.90;;;;;;5035295;28;20220;-63
2021/03/11 06:58:18;;;;;;;14.63;3.73;;;10.90;99.90;;;;;;5056637;28;20721;-63
2021/03/11 07:00:46;;;;;;;12.73;3.70;;;11.10;99.90;;;;;;5050021;28;20261;-63
2021/03/11 07:03:13;;;;;;;18.57;3.97;;;11.10;99.90;;;;;;5059684;28;20199;-65
2021/03/11 07:05:40;;;;;;;20.47;4.07;;;11.00;99.90;;;;;;5074413;28;20646;-65
2021/03/11 07:08:09;;;;;;;18.03;4.93;;;11.00;99.90;;;;;;5074015;28;20237;-63
2021/03/11 07:10:36;;;;;;;17.27;4.00;;;11.00;99.90;;;;;;5069938;28;20187;-63
2021/03/11 07:13:04;;;;;;;19.23;4.40;;;11.10;99.90;;;;;;5051597;28;20203;-63
2021/03/11 07:15:32;;;;;;;17.77;4.40;;;11.10;99.90;;;;;;5052743;28;20563;-65
2021/03/11 07:18:01;;;;;;;19.93;4.30;;;11.10;99.90;;;;;;5050716;28;20200;-62
2021/03/11 07:20:29;;;;;;;16.20;4.90;;;11.10;99.90;;;;;;5051004;28;20200;-63
2021/03/11 07:23:02;;;;;;;23.30;6.43;;;11.10;99.90;;;;;;5050261;28;20620;-62
2021/03/11 07:25:31;;;;;;;18.67;4.70;;;11.10;99.90;;;;;;5052399;28;20187;-63
2021/03/11 07:27:58;;;;;;;19.93;4.37;;;11.10;99.90;;;;;;5048007;28;20204;-62
2021/03/11 07:30:25;;;;;;;15.70;4.50;;;11.10;99.90;;;;;;5051668;28;20204;-64
2021/03/11 07:33:01;;;;;;;16.73;4.40;;;11.10;99.90;;;;;;5052185;28;20674;-65
2021/03/11 07:35:30;;;;;;;21.50;4.50;;;11.20;99.90;;;;;;5053605;28;20668;-63
2021/03/11 07:37:59;;;;;;;24.80;6.17;;;11.20;99.90;;;;;;5053616;28;20250;-63
2021/03/11 07:40:27;;;;;;;20.67;5.90;;;11.30;99.90;;;;;;5053398;28;20196;-63
2021/03/11 07:42:54;;;;;;;21.47;5.87;;;11.30;99.90;;;;;;5053504;28;20553;-63
2021/03/11 07:45:20;;;;;;;22.33;5.00;;;11.40;99.90;;;;;;5051146;28;20199;-64
2021/03/11 07:47:50;;;;;;;25.40;5.30;;;11.30;99.90;;;;;;5073417;28;20643;-63
2021/03/11 07:50:18;;;;;;;26.77;6.60;;;11.30;99.90;;;;;;5054943;28;20590;-64
2021/03/11 07:52:44;;;;;;;25.53;5.83;;;11.30;99.90;;;;;;5050245;28;20200;-66
2021/03/11 07:55:12;;;;;;;24.50;5.60;;;11.20;99.90;;;;;;5046022;28;20235;-65
2021/03/11 07:57:47;;;;;;;29.33;6.20;;;11.20;99.90;;;;;;5045816;28;20196;-66
2021/03/11 08:00:16;;;;;;;21.73;5.23;;;11.40;99.90;;;;;;5047248;28;20206;-63
2021/03/11 08:02:54;;;;;;;24.10;6.33;;;11.60;99.90;;;;;;5043663;28;20212;-63
2021/03/11 08:05:29;;;;;;;22.87;6.03;;;11.70;99.90;;;;;;5070611;28;20194;-63
2021/03/11 08:08:14;;;;;;;22.23;5.70;;;11.60;99.90;;;;;;5066967;28;20191;-64
2021/03/11 08:10:42;;;;;;;26.23;6.13;;;11.70;99.90;;;;;;5051736;28;20247;-63
2021/03/11 08:13:32;;;;;;;22.57;5.23;;;11.80;99.90;;;;;;5041412;28;20286;-64
2021/03/11 08:16:00;;;;;;;27.40;5.10;;;12.00;99.90;;;;;;5048339;28;20220;-63
2021/03/11 08:18:40;;;;;;;18.60;5.73;;;12.10;99.90;;;;;;5045478;28;20222;-64
2021/03/11 08:21:31;;;;;;;22.53;5.43;;;12.10;99.90;;;;;;5055727;28;20210;-65
2021/03/11 08:23:58;;;;;;;19.57;5.30;;;12.20;99.90;;;;;;5050193;28;20196;-62
2021/03/11 08:26:43;;;;;;;22.97;5.50;;;12.20;99.90;;;;;;5052416;28;20571;-64
2021/03/11 08:29:33;;;;;;;21.57;5.50;;;12.20;99.90;;;;;;5047602;28;20258;-63
2021/03/11 08:32:00;;;;;;;28.50;5.33;;;12.30;99.90;;;;;;5044894;28;20228;-64
2021/03/11 08:34:36;;;;;;;21.07;5.20;;;12.50;99.90;;;;;;5050049;28;20220;-63
2021/03/11 08:37:19;;;;;;;27.97;5.97;;;12.50;99.90;;;;;;5050891;28;20656;-65
2021/03/11 08:39:46;;;;;;;21.80;5.43;;;12.30;99.90;;;;;;5052445;28;20525;-64
2021/03/11 08:42:48;;;;;;;26.17;5.97;;;12.10;99.90;;;;;;5049289;28;21477;-65
2021/03/11 08:46:00;;;;;;;25.87;6.30;;;12.00;99.90;;;;;;5046380;28;20652;-63
2021/03/11 08:48:26;;;;;;;16.90;4.70;;;12.00;99.90;;;;;;5045080;28;20203;-63
2021/03/11 08:50:54;;;;;;;26.67;6.03;;;11.90;99.90;;;;;;5050530;28;20206;-65
2021/03/11 08:53:50;;;;;;;22.13;5.90;;;11.80;99.90;;;;;;5051256;28;20531;-64
2021/03/11 08:56:42;;;;;;;26.30;6.50;;;11.90;99.90;;;;;;5048050;28;20253;-64
2021/03/11 08:59:13;;;;;;;21.70;5.27;;;12.10;99.90;;;;;;5036562;28;20211;-66
2021/03/11 09:01:43;;;;;;;22.27;6.13;;;12.30;99.90;;;;;;5052128;28;20192;-66
2021/03/11 09:04:43;;;;;;;26.97;5.17;;;12.40;99.90;;;;;;5044492;28;20672;-64
2021/03/11 09:07:11;;;;;;;23.33;5.47;;;12.40;99.90;;;;;;5029835;28;20199;-65
2021/03/11 09:09:40;;;;;;;22.67;5.50;;;12.20;99.90;;;;;;5040413;28;20235;-64
2021/03/11 09:12:09;;;;;;;25.00;5.53;;;12.10;99.90;;;;;;5037107;28;20741;-65
2021/03/11 09:14:37;;;;;;;21.90;5.33;;;12.20;99.90;;;;;;5034943;28;20251;-64
2021/03/11 09:17:05;;;;;;;28.83;6.80;;;12.10;99.90;;;;;;5036812;28;20223;-64
2021/03/11 09:19:41;;;;;;;29.50;6.20;;;11.90;99.90;;;;;;5044421;28;20251;-65
2021/03/11 09:22:23;;;;;;;24.73;6.03;;;11.90;99.90;;;;;;5032432;28;20191;-64
2021/03/11 09:25:12;;;;;;;24.00;6.60;;;11.90;99.90;;;;;;5030259;28;20208;-64
2021/03/11 09:27:41;;;;;;;27.53;6.80;;;11.90;99.90;;;;;;5035528;28;20194;-64
2021/03/11 09:30:10;;;;;;;26.37;6.50;;;12.10;99.90;;;;;;5034845;28;20199;-64
2021/03/11 09:32:38;;;;;;;22.37;6.33;;;12.00;99.90;;;;;;5046740;28;20246;-64
2021/03/11 09:35:07;;;;;;;24.40;6.43;;;12.30;99.90;;;;;;5043246;28;20227;-65
2021/03/11 09:37:53;;;;;;;29.90;7.20;;;12.70;99.90;;;;;;5036681;28;20195;-64
2021/03/11 09:40:27;;;;;;;23.87;6.93;;;13.10;99.90;;;;;;5042459;28;20199;-64
2021/03/11 09:43:09;;;;;;;28.40;6.33;;;13.00;99.90;;;;;;5035517;28;20218;-64
2021/03/11 09:45:42;;;;;;;39.33;7.10;;;12.90;99.90;;;;;;5043774;28;20199;-64
2021/03/11 09:48:10;;;;;;;26.50;6.27;;;13.30;99.90;;;;;;5049667;28;20206;-65
2021/03/11 09:50:39;;;;;;;22.77;6.87;;;13.80;99.90;;;;;;5051663;28;20639;-64
2021/03/11 09:53:06;;;;;;;36.23;7.77;;;14.00;99.90;;;;;;5041631;28;20243;-64
2021/03/11 09:55:34;;;;;;;43.63;6.60;;;14.10;99.90;;;;;;5049510;28;20243;-65
2021/03/11 09:58:00;;;;;;;39.60;5.77;;;13.80;99.90;;;;;;5028575;28;20209;-65
2021/03/11 10:00:27;;;;;;;34.33;6.53;;;13.10;99.90;;;;;;5039756;28;20249;-65
2021/03/11 10:02:54;;;;;;;33.47;6.90;;;12.50;99.90;;;;;;5044064;28;20199;-65
2021/03/11 10:05:21;;;;;;;38.27;6.70;;;12.30;99.90;;;;;;5045971;28;20207;-64
2021/03/11 10:07:55;;;;;;;53.50;8.30;;;12.60;99.90;;;;;;5052913;28;20269;-64
2021/03/11 10:10:22;;;;;;;38.80;7.47;;;13.00;99.90;;;;;;5053503;28;20418;-65
2021/03/11 10:12:50;;;;;;;34.33;7.43;;;13.00;99.90;;;;;;5048645;28;20203;-66
2021/03/11 10:15:18;;;;;;;35.27;6.33;;;13.30;99.90;;;;;;5051621;28;20711;-64
2021/03/11 10:17:46;;;;;;;29.63;6.20;;;13.60;99.90;;;;;;5049378;28;20219;-64
2021/03/11 10:20:27;;;;;;;45.77;6.93;;;13.70;99.90;;;;;;5052086;28;20210;-64
2021/03/11 10:23:14;;;;;;;37.63;6.77;;;13.60;99.90;;;;;;5043595;28;20200;-64
2021/03/11 10:25:41;;;;;;;34.70;6.60;;;13.70;99.90;;;;;;5044966;28;20488;-64
2021/03/11 10:28:08;;;;;;;35.47;6.70;;;14.00;99.90;;;;;;5051566;28;20212;-65
2021/03/11 10:30:37;;;;;;;42.77;7.53;;;14.10;99.90;;;;;;5058531;28;20604;-66
2021/03/11 10:33:05;;;;;;;44.53;8.87;;;14.10;99.90;;;;;;5035392;28;20200;-65
2021/03/11 10:35:34;;;;;;;37.30;6.73;;;14.00;99.90;;;;;;5034531;28;20258;-65
2021/03/11 10:38:15;;;;;;;31.97;6.60;;;14.00;99.90;;;;;;5042136;28;20196;-65
2021/03/11 10:40:41;;;;;;;49.37;6.50;;;13.50;99.90;;;;;;5043970;28;20196;-66
2021/03/11 10:43:18;;;;;;;39.63;7.30;;;13.10;99.90;;;;;;5036399;28;20889;-64
2021/03/11 10:45:45;;;;;;;39.60;7.10;;;13.00;99.90;;;;;;5033247;28;20937;-65
2021/03/11 10:48:12;;;;;;;53.87;8.57;;;13.10;99.90;;;;;;5036654;28;20210;-65
2021/03/11 10:50:40;;;;;;;44.47;8.63;;;13.00;99.90;;;;;;5034993;28;20286;-64
2021/03/11 10:53:08;;;;;;;52.30;7.97;;;13.20;99.90;;;;;;5036833;28;20208;-65
2021/03/11 10:55:36;;;;;;;56.27;9.13;;;13.30;99.90;;;;;;5036708;28;20215;-65
2021/03/11 10:58:04;;;;;;;35.13;7.00;;;13.20;99.90;;;;;;5033907;28;20389;-65
2021/03/11 11:00:33;;;;;;;55.50;9.73;;;13.20;99.90;;;;;;5040232;28;20200;-65
2021/03/11 11:03:01;;;;;;;41.37;7.57;;;13.20;99.90;;;;;;5036638;28;20711;-65
2021/03/11 11:05:28;;;;;;;73.77;10.77;;;13.10;99.90;;;;;;5044471;28;20200;-66
2021/03/11 11:07:55;;;;;;;60.50;7.50;;;13.00;99.90;;;;;;5043083;28;20196;-65
2021/03/11 11:10:25;;;;;;;22.40;6.10;;;13.00;99.90;;;;;;5053997;28;20571;-64
2021/03/11 11:12:52;;;;;;;31.40;6.43;;;12.80;99.90;;;;;;5040549;28;20195;-66
2021/03/11 11:15:19;;;;;;;28.37;6.47;;;12.70;99.90;;;;;;5039654;28;20231;-65
2021/03/11 11:17:46;;;;;;;26.77;4.83;;;12.90;99.90;;;;;;5039979;28;20200;-65
2021/03/11 11:20:17;;;;;;;29.27;5.93;;;12.90;99.90;;;;;;5033497;28;20565;-65
2021/03/11 11:22:44;;;;;;;25.73;5.40;;;13.00;99.90;;;;;;5052868;28;20195;-65
2021/03/11 11:25:12;;;;;;;23.80;5.03;;;12.90;99.90;;;;;;5040488;28;20569;-65
2021/03/11 11:27:39;;;;;;;19.60;5.10;;;12.80;99.90;;;;;;5032855;28;20208;-66
2021/03/11 11:30:08;;;;;;;25.13;5.57;;;12.70;99.90;;;;;;5041821;28;20653;-66
2021/03/11 11:32:35;;;;;;;31.40;5.27;;;12.70;99.90;;;;;;5036677;28;20230;-64
2021/03/11 11:35:03;;;;;;;23.60;5.67;;;12.70;99.90;;;;;;5036708;28;20948;-65
2021/03/11 11:37:30;;;;;;;20.57;5.80;;;12.90;99.90;;;;;;5031993;28;20205;-65
2021/03/11 11:39:57;;;;;;;23.17;5.07;;;13.00;99.90;;;;;;5038804;28;20208;-64
2021/03/11 11:42:23;;;;;;;28.17;5.30;;;13.10;99.90;;;;;;5036180;28;20309;-66
2021/03/11 11:44:50;;;;;;;27.83;5.43;;;13.10;99.90;;;;;;5034210;28;20246;-67
2021/03/11 11:47:17;;;;;;;32.40;6.67;;;13.20;99.90;;;;;;5048883;28;20199;-66
2021/03/11 11:49:44;;;;;;;25.83;6.37;;;13.10;99.90;;;;;;5051313;28;20279;-72
2021/03/11 11:52:11;;;;;;;33.87;6.47;;;13.30;99.90;;;;;;5042368;28;20199;-65
2021/03/11 11:54:39;;;;;;;28.37;5.87;;;13.50;99.90;;;;;;5048856;28;20283;-66
2021/03/11 11:57:06;;;;;;;25.77;6.50;;;13.30;99.90;;;;;;5051933;28;20200;-67
2021/03/11 11:59:33;;;;;;;22.03;5.03;;;13.00;99.90;;;;;;5038931;28;20206;-68
2021/03/11 12:02:00;;;;;;;24.10;5.60;;;13.00;99.90;;;;;;5043745;28;20200;-70
2021/03/11 12:04:27;;;;;;;26.23;5.47;;;13.70;99.90;;;;;;5039067;28;20212;-67
2021/03/11 12:06:53;;;;;;;20.53;5.10;;;13.90;99.90;;;;;;5034194;28;20262;-67
2021/03/11 12:09:20;;;;;;;17.83;3.53;;;14.20;99.90;;;;;;5040451;28;20561;-68
2021/03/11 12:11:48;;;;;;;16.07;3.67;;;14.30;99.90;;;;;;5037881;28;20196;-68
2021/03/11 12:14:14;;;;;;;19.87;4.70;;;14.20;99.90;;;;;;5047969;28;20208;-67
2021/03/11 12:16:41;;;;;;;20.80;4.43;;;14.20;99.90;;;;;;5047007;28;20207;-68
2021/03/11 12:19:07;;;;;;;22.50;4.50;;;14.10;99.90;;;;;;5044383;28;20216;-68
2021/03/11 12:21:34;;;;;;;18.27;4.80;;;14.00;99.90;;;;;;5045743;28;20195;-66
2021/03/11 12:24:02;;;;;;;21.03;4.70;;;14.40;99.90;;;;;;5047713;28;20211;-67
2021/03/11 12:26:30;;;;;;;15.77;3.57;;;14.30;99.90;;;;;;5048067;28;20203;-67
2021/03/11 12:28:57;;;;;;;21.67;4.77;;;14.30;99.90;;;;;;5043856;28;20200;-67
2021/03/11 12:31:24;;;;;;;19.33;4.13;;;14.70;99.90;;;;;;5045671;28;20208;-67
2021/03/11 12:33:51;;;;;;;16.83;4.57;;;15.00;99.90;;;;;;5039080;28;20204;-67
2021/03/11 12:36:19;;;;;;;18.93;4.53;;;15.10;99.90;;;;;;5042622;28;20227;-68
2021/03/11 12:38:46;;;;;;;22.20;4.80;;;15.20;99.90;;;;;;5043287;28;20218;-67
2021/03/11 12:41:13;;;;;;;16.60;3.97;;;15.00;99.90;;;;;;5041358;28;20211;-67
2021/03/11 12:43:40;;;;;;;19.60;3.80;;;15.00;99.90;;;;;;5039621;28;20723;-66
2021/03/11 12:46:10;;;;;;;19.33;4.40;;;15.20;99.90;;;;;;5041527;28;20211;-68
2021/03/11 12:48:36;;;;;;;23.67;4.90;;;15.20;99.90;;;;;;5041549;28;20295;-67